Aviation Digital Data Service (ADDS)

Output produced by TAFs form (1522 UTC 22 November 2014)
found at http://aviationweather.gov/adds/tafs/
 
KMAF 221422Z 2214/2312 08004KT P6SM OVC016 
     TEMPO 2214/2216 4SM -TSRA BR BKN040CB 
     FM221600 23008KT P6SM FEW030 BKN050